Time;durP1;ratioP1;P1;durP2;ratioP2;P2;SDS_P1;SDS_P2;PMS_P1;PMS_P2;Temp;Humidity;BMP_temperature;BMP_pressure;BME280_temperature;BME280_humidity;BME280_pressure;Samples;Min_cycle;Max_cycle;Signal;HPM_P1;HPM_P2
2022/10/29 00:02:10;;;;;;;3.78;2.70;;;18.70;74.80;;;;;;6281831;22;20210;-80
2022/10/29 00:04:36;;;;;;;3.13;2.35;;;18.60;74.70;;;;;;6295936;22;20155;-80
2022/10/29 00:07:06;;;;;;;3.47;2.45;;;18.70;74.70;;;;;;6296388;22;20164;-80
2022/10/29 00:09:37;;;;;;;2.28;2.08;;;18.70;74.70;;;;;;6219088;22;20152;-80
2022/10/29 00:12:03;;;;;;;3.15;2.33;;;18.70;74.80;;;;;;6221908;22;20159;-80
2022/10/29 00:14:33;;;;;;;4.47;2.50;;;18.70;74.90;;;;;;6327362;22;20144;-80
2022/10/29 00:16:59;;;;;;;3.42;2.65;;;18.70;74.70;;;;;;6224379;22;20152;-80
2022/10/29 00:19:29;;;;;;;2.97;2.47;;;18.70;74.90;;;;;;6326246;22;20112;-80
2022/10/29 00:22:00;;;;;;;3.40;2.53;;;18.70;74.80;;;;;;6276006;22;20175;-80
2022/10/29 00:24:32;;;;;;;3.33;2.30;;;18.70;74.90;;;;;;6224421;22;20170;-80
2022/10/29 00:26:58;;;;;;;2.70;2.33;;;18.70;74.90;;;;;;6247971;22;20599;-80
2022/10/29 00:29:24;;;;;;;4.47;2.72;;;18.60;74.80;;;;;;6325039;22;20148;-80
2022/10/29 00:31:54;;;;;;;2.97;2.40;;;18.60;74.90;;;;;;6323952;22;20136;-80
2022/10/29 00:34:19;;;;;;;2.95;2.50;;;18.60;74.90;;;;;;6294797;22;20152;-80
2022/10/29 00:36:49;;;;;;;3.33;2.60;;;18.60;74.90;;;;;;6321964;22;20138;-80
2022/10/29 00:39:20;;;;;;;3.83;2.47;;;18.60;74.90;;;;;;6218614;22;20209;-80
2022/10/29 00:41:51;;;;;;;3.42;2.40;;;18.60;75.00;;;;;;6218846;22;20152;-80
2022/10/29 00:44:30;;;;;;;4.20;2.50;;;18.60;75.00;;;;;;6245415;22;20231;-82
2022/10/29 00:47:01;;;;;;;3.17;2.53;;;18.60;74.90;;;;;;6321499;22;20147;-80
2022/10/29 00:49:27;;;;;;;4.22;2.53;;;18.60;74.90;;;;;;6296317;22;20140;-80
2022/10/29 00:51:59;;;;;;;3.83;2.58;;;18.60;74.90;;;;;;6323680;22;20136;-81
2022/10/29 00:54:30;;;;;;;3.67;2.50;;;18.60;74.90;;;;;;6295699;22;20151;-80
2022/10/29 00:57:03;;;;;;;4.78;2.50;;;18.60;74.90;;;;;;6269743;22;20156;-80
2022/10/29 00:59:36;;;;;;;3.38;2.63;;;18.60;74.90;;;;;;6244399;22;20159;-80
2022/10/29 01:02:01;;;;;;;3.47;2.40;;;18.60;74.90;;;;;;6268943;22;20205;-80
2022/10/29 01:04:27;;;;;;;3.28;2.40;;;18.60;75.00;;;;;;6320773;22;20166;-80
2022/10/29 01:06:54;;;;;;;5.35;2.75;;;18.60;74.80;;;;;;6295869;22;20140;-81
2022/10/29 01:09:24;;;;;;;3.28;2.42;;;18.60;74.90;;;;;;6321984;22;20196;-80
2022/10/29 01:12:09;;;;;;;3.40;2.30;;;18.60;74.90;;;;;;6269327;22;20156;-80
2022/10/29 01:14:49;;;;;;;2.70;2.40;;;18.60;74.70;;;;;;6248002;22;20237;-80
2022/10/29 01:17:27;;;;;;;3.67;2.25;;;18.60;74.70;;;;;;6322363;22;20146;-80
2022/10/29 01:20:22;;;;;;;5.10;2.38;;;18.70;74.80;;;;;;6295125;22;20144;-80
2022/10/29 01:23:03;;;;;;;3.75;2.60;;;18.60;74.60;;;;;;6277851;22;20251;-80
2022/10/29 01:26:02;;;;;;;2.58;2.20;;;18.60;74.60;;;;;;6295010;22;20215;-80
2022/10/29 01:29:02;;;;;;;3.05;2.63;;;18.60;74.60;;;;;;6320963;22;20170;-80
2022/10/29 01:31:34;;;;;;;3.65;2.38;;;18.60;74.70;;;;;;6319856;22;20148;-80
2022/10/29 01:34:10;;;;;;;2.80;2.38;;;18.60;74.80;;;;;;6293674;22;20148;-80
2022/10/29 01:36:48;;;;;;;5.35;2.47;;;18.60;74.80;;;;;;6319499;22;20152;-81
2022/10/29 01:39:53;;;;;;;3.50;2.42;;;18.60;74.80;;;;;;6268338;22;20163;-81
2022/10/29 01:42:42;;;;;;;3.03;2.35;;;18.60;74.80;;;;;;6320775;22;20175;-81
2022/10/29 01:45:22;;;;;;;2.75;2.30;;;18.60;74.80;;;;;;6247911;22;20147;-81
2022/10/29 01:47:53;;;;;;;3.45;2.30;;;18.60;74.90;;;;;;6293640;22;20279;-81
2022/10/29 01:50:24;;;;;;;2.80;2.30;;;18.60;74.70;;;;;;6319296;22;20133;-80
2022/10/29 01:52:50;;;;;;;3.03;2.35;;;18.70;74.70;;;;;;6242413;22;20162;-81
2022/10/29 01:55:19;;;;;;;2.97;2.47;;;18.60;74.80;;;;;;6319457;22;20212;-80
2022/10/29 01:57:50;;;;;;;3.67;2.40;;;18.60;74.80;;;;;;6318999;22;20132;-81
2022/10/29 02:00:20;;;;;;;4.22;2.60;;;18.60;75.60;;;;;;6241686;22;20511;-81
2022/10/29 02:03:10;;;;;;;4.43;2.47;;;18.50;74.80;;;;;;6318732;22;20210;-81
2022/10/29 02:05:54;;;;;;;3.05;2.38;;;18.50;74.70;;;;;;6319130;22;20159;-80
2022/10/29 02:08:37;;;;;;;3.00;2.47;;;18.60;74.70;;;;;;6273237;22;20499;-80
2022/10/29 02:11:15;;;;;;;3.92;2.55;;;18.60;74.70;;;;;;6320904;22;20132;-80
2022/10/29 02:13:49;;;;;;;2.92;2.38;;;18.70;74.90;;;;;;6293870;22;20147;-81
2022/10/29 02:16:23;;;;;;;2.80;2.17;;;18.60;74.70;;;;;;6245161;22;20172;-80
2022/10/29 02:18:49;;;;;;;4.28;2.33;;;18.60;74.80;;;;;;6269264;22;20168;-80
2022/10/29 02:21:16;;;;;;;2.55;2.35;;;18.60;74.70;;;;;;6294848;22;20204;-81
2022/10/29 02:23:42;;;;;;;2.70;2.50;;;18.60;74.70;;;;;;6320711;22;20243;-80
2022/10/29 02:26:13;;;;;;;2.95;2.45;;;18.60;74.70;;;;;;6322784;22;20129;-80
2022/10/29 02:28:39;;;;;;;2.90;2.58;;;18.60;74.80;;;;;;6269332;22;20233;-82
2022/10/29 02:31:10;;;;;;;2.80;2.20;;;18.60;74.70;;;;;;6322547;22;20128;-80
2022/10/29 02:33:40;;;;;;;2.50;2.22;;;18.60;74.70;;;;;;6268668;22;20173;-80
2022/10/29 02:36:06;;;;;;;4.30;2.80;;;18.60;74.70;;;;;;6268939;22;20152;-81
2022/10/29 02:38:32;;;;;;;3.05;2.15;;;18.60;74.70;;;;;;6321014;22;20151;-80
2022/10/29 02:40:58;;;;;;;4.30;2.40;;;18.60;74.70;;;;;;6320965;22;20151;-81
2022/10/29 02:43:24;;;;;;;2.58;2.38;;;18.60;74.90;;;;;;6294861;22;20171;-81
2022/10/29 02:45:50;;;;;;;2.50;2.25;;;18.50;74.70;;;;;;6320608;22;20143;-80
2022/10/29 02:48:16;;;;;;;3.45;2.33;;;18.50;74.70;;;;;;6295936;22;20143;-81
2022/10/29 02:50:42;;;;;;;3.20;2.42;;;18.60;74.80;;;;;;6320970;22;20136;-80
2022/10/29 02:53:10;;;;;;;2.53;2.33;;;18.60;74.70;;;;;;6320235;22;20132;-80
2022/10/29 02:55:40;;;;;;;3.53;2.38;;;18.60;74.70;;;;;;6322720;22;20162;-80
2022/10/29 02:58:06;;;;;;;2.53;2.20;;;18.60;74.70;;;;;;6268918;22;20155;-83
2022/10/29 03:00:36;;;;;;;2.70;2.13;;;18.60;74.70;;;;;;6321001;22;20147;-80
2022/10/29 03:03:06;;;;;;;2.90;2.30;;;18.60;74.70;;;;;;6268294;22;20206;-81
2022/10/29 03:05:36;;;;;;;2.90;2.30;;;18.60;74.70;;;;;;6268819;22;20147;-81
2022/10/29 03:08:07;;;;;;;2.63;2.13;;;18.60;74.90;;;;;;6267883;22;20158;-80
2022/10/29 03:10:33;;;;;;;3.25;2.35;;;18.60;74.80;;;;;;6269313;22;20148;-81
2022/10/29 03:13:04;;;;;;;2.58;2.15;;;18.50;74.70;;;;;;6294767;22;20282;-80
2022/10/29 03:15:35;;;;;;;3.00;2.40;;;18.50;74.70;;;;;;6242840;22;20190;-80
2022/10/29 03:18:05;;;;;;;3.33;2.42;;;18.50;74.70;;;;;;6243592;22;20599;-80
2022/10/29 03:20:35;;;;;;;4.63;2.45;;;18.50;74.80;;;;;;6243313;22;20181;-81
2022/10/29 03:23:01;;;;;;;2.50;2.20;;;18.50;74.70;;;;;;6293964;22;20190;-81
2022/10/29 03:25:27;;;;;;;5.13;2.53;;;18.50;74.80;;;;;;6294194;22;20144;-80
2022/10/29 03:27:53;;;;;;;2.47;2.25;;;18.50;74.70;;;;;;6320515;22;20132;-81
2022/10/29 03:30:18;;;;;;;2.60;2.40;;;18.50;74.80;;;;;;6321915;22;20136;-80
2022/10/29 03:32:46;;;;;;;4.25;2.70;;;18.50;74.80;;;;;;6321957;22;20140;-80
2022/10/29 03:35:16;;;;;;;2.70;2.25;;;18.60;74.80;;;;;;6319945;22;20138;-80
2022/10/29 03:37:42;;;;;;;3.15;2.40;;;18.50;74.70;;;;;;6267289;22;20158;-80
2022/10/29 03:40:08;;;;;;;2.65;2.30;;;18.50;74.70;;;;;;6320793;22;20136;-81
2022/10/29 03:42:34;;;;;;;3.03;2.60;;;18.50;74.70;;;;;;6321010;22;20205;-81
2022/10/29 03:45:00;;;;;;;2.83;2.45;;;18.60;74.80;;;;;;6321878;22;20147;-81
2022/10/29 03:47:32;;;;;;;3.00;2.22;;;18.60;74.70;;;;;;6319802;22;20178;-82
2022/10/29 03:50:04;;;;;;;2.97;2.50;;;18.50;74.70;;;;;;6268175;22;20467;-81
2022/10/29 03:52:30;;;;;;;2.70;2.38;;;18.50;74.70;;;;;;6216470;22;20156;-81
2022/10/29 03:55:01;;;;;;;3.45;2.53;;;18.50;74.70;;;;;;6319770;22;20139;-81
2022/10/29 03:57:27;;;;;;;2.80;2.53;;;18.60;74.60;;;;;;6293008;22;20156;-82
2022/10/29 03:59:53;;;;;;;3.17;2.50;;;18.60;74.90;;;;;;6319727;22;20132;-81
2022/10/29 04:02:19;;;;;;;2.47;2.28;;;18.50;74.70;;;;;;6319710;22;20209;-82
2022/10/29 04:04:49;;;;;;;3.80;2.65;;;18.50;74.60;;;;;;6319498;22;20141;-81
2022/10/29 04:07:15;;;;;;;2.85;2.10;;;18.60;74.80;;;;;;6216893;22;20180;-81
2022/10/29 04:09:47;;;;;;;2.90;2.35;;;18.50;74.70;;;;;;6320914;22;20139;-81
2022/10/29 04:12:13;;;;;;;2.78;2.40;;;18.50;74.70;;;;;;6242047;22;20152;-80
2022/10/29 04:14:41;;;;;;;2.97;2.22;;;18.50;74.70;;;;;;6293694;22;20163;-81
2022/10/29 04:17:09;;;;;;;2.60;2.40;;;18.50;74.70;;;;;;6320562;22;20160;-82
2022/10/29 04:19:39;;;;;;;2.88;2.50;;;18.50;74.60;;;;;;6319963;22;20160;-82
2022/10/29 04:22:05;;;;;;;3.33;2.20;;;18.50;74.70;;;;;;6242224;22;20172;-82
2022/10/29 04:24:35;;;;;;;2.35;2.15;;;18.50;74.60;;;;;;6319673;22;20133;-81
2022/10/29 04:27:04;;;;;;;2.95;2.30;;;18.50;74.60;;;;;;6266998;22;20171;-81
2022/10/29 04:29:31;;;;;;;3.30;2.17;;;18.60;74.70;;;;;;6267369;22;20148;-80
2022/10/29 04:31:56;;;;;;;2.50;2.28;;;18.50;74.60;;;;;;6293538;22;20140;-81
2022/10/29 04:34:24;;;;;;;4.80;2.60;;;18.50;74.70;;;;;;6293635;22;20171;-82
2022/10/29 04:36:55;;;;;;;3.47;2.33;;;18.50;75.50;;;;;;6268112;22;20140;-81
2022/10/29 04:39:21;;;;;;;4.32;2.40;;;18.50;74.70;;;;;;6267680;22;20187;-81
2022/10/29 04:41:48;;;;;;;3.08;2.40;;;18.50;74.80;;;;;;6294676;22;20143;-81
2022/10/29 04:44:14;;;;;;;4.03;2.80;;;18.50;74.70;;;;;;6294270;22;20136;-81
2022/10/29 04:46:44;;;;;;;3.25;2.25;;;18.50;74.60;;;;;;6319496;22;20132;-81
2022/10/29 04:49:14;;;;;;;3.00;2.38;;;18.50;75.50;;;;;;6241985;22;20144;-81
2022/10/29 04:51:40;;;;;;;2.97;2.35;;;18.50;74.70;;;;;;6217719;22;20215;-81
2022/10/29 04:54:12;;;;;;;2.90;2.50;;;18.50;74.70;;;;;;6320587;22;20141;-82
2022/10/29 04:56:37;;;;;;;3.80;2.40;;;18.50;74.70;;;;;;6267488;22;20735;-81
2022/10/29 04:59:03;;;;;;;3.08;2.20;;;18.50;74.60;;;;;;6320681;22;20163;-81
2022/10/29 05:01:29;;;;;;;3.25;2.28;;;18.50;74.70;;;;;;6293041;22;20206;-81
2022/10/29 05:03:55;;;;;;;2.47;2.28;;;18.50;74.70;;;;;;6319108;22;20170;-82
2022/10/29 05:06:25;;;;;;;3.50;2.22;;;18.50;74.70;;;;;;6316724;22;20135;-80
2022/10/29 05:08:54;;;;;;;2.90;2.40;;;18.50;74.70;;;;;;6264580;22;20148;-82
2022/10/29 05:11:20;;;;;;;2.58;2.22;;;18.50;74.80;;;;;;6317645;22;20132;-82
2022/10/29 05:13:46;;;;;;;2.88;2.53;;;18.50;74.70;;;;;;6290490;22;20182;-81
2022/10/29 05:16:12;;;;;;;3.80;2.33;;;18.50;74.70;;;;;;6265845;22;20151;-80
2022/10/29 05:18:38;;;;;;;3.20;2.22;;;18.50;74.70;;;;;;6317478;22;20132;-82
2022/10/29 05:21:04;;;;;;;5.35;2.42;;;18.50;74.70;;;;;;6318233;22;20135;-81
2022/10/29 05:23:30;;;;;;;3.10;2.50;;;18.50;74.70;;;;;;6291806;22;20168;-82
2022/10/29 05:25:55;;;;;;;4.03;2.50;;;18.50;74.60;;;;;;6317274;22;20136;-81
2022/10/29 05:28:22;;;;;;;3.03;2.13;;;18.50;74.60;;;;;;6290983;22;20155;-81
2022/10/29 05:30:50;;;;;;;2.63;2.40;;;18.50;74.70;;;;;;6291921;22;20128;-82
2022/10/29 05:33:19;;;;;;;4.03;2.45;;;18.50;74.60;;;;;;6293182;22;20144;-81
2022/10/29 05:35:45;;;;;;;2.53;2.33;;;18.50;74.70;;;;;;6293368;22;20128;-82
2022/10/29 05:38:11;;;;;;;2.50;2.30;;;18.50;74.70;;;;;;6319130;22;20201;-81
2022/10/29 05:40:44;;;;;;;2.55;2.35;;;18.50;74.70;;;;;;6293202;22;20211;-81
2022/10/29 05:43:13;;;;;;;4.20;2.55;;;18.50;74.70;;;;;;6318947;22;20159;-81
2022/10/29 05:45:40;;;;;;;2.80;2.50;;;18.50;74.70;;;;;;6294168;22;20128;-81
2022/10/29 05:48:06;;;;;;;2.85;2.45;;;18.50;74.60;;;;;;6267660;22;20159;-81
2022/10/29 05:50:36;;;;;;;2.83;2.30;;;18.50;74.60;;;;;;6292766;22;20136;-81
2022/10/29 05:53:08;;;;;;;3.45;2.67;;;18.50;74.60;;;;;;6241281;22;20156;-82
2022/10/29 05:55:39;;;;;;;3.28;2.40;;;18.50;74.70;;;;;;6267574;22;20156;-81
2022/10/29 05:58:06;;;;;;;2.47;2.17;;;18.50;74.60;;;;;;6216378;22;20151;-81
2022/10/29 06:00:35;;;;;;;2.95;2.33;;;18.50;75.50;;;;;;6294802;22;20144;-82
2022/10/29 06:03:00;;;;;;;3.00;2.50;;;18.50;75.40;;;;;;6267936;22;20200;-82
2022/10/29 06:05:26;;;;;;;2.88;2.50;;;18.50;74.60;;;;;;6293088;22;20171;-81
2022/10/29 06:07:57;;;;;;;3.47;2.40;;;18.50;74.60;;;;;;6292788;22;20132;-81
2022/10/29 06:10:24;;;;;;;4.65;2.60;;;18.40;74.60;;;;;;6295022;22;20140;-81
2022/10/29 06:12:49;;;;;;;2.80;2.50;;;18.50;74.60;;;;;;6293507;22;20132;-81
2022/10/29 06:15:20;;;;;;;2.90;2.47;;;18.50;74.70;;;;;;6293676;22;20136;-81
2022/10/29 06:17:47;;;;;;;3.15;2.47;;;18.50;74.60;;;;;;6241671;22;20159;-81
2022/10/29 06:20:16;;;;;;;2.85;2.40;;;18.50;74.60;;;;;;6293426;22;20139;-81
2022/10/29 06:22:42;;;;;;;2.88;2.58;;;18.60;74.80;;;;;;6291573;22;20168;-81
2022/10/29 06:25:08;;;;;;;2.67;2.38;;;18.50;74.60;;;;;;6292379;22;20186;-81
2022/10/29 06:27:36;;;;;;;3.58;2.40;;;18.50;74.60;;;;;;6291652;22;20217;-81
2022/10/29 06:30:03;;;;;;;3.25;2.58;;;18.40;74.50;;;;;;6292189;22;20140;-81
2022/10/29 06:32:28;;;;;;;3.97;2.08;;;18.50;74.60;;;;;;6317405;22;20148;-81
2022/10/29 06:34:54;;;;;;;2.30;2.10;;;18.50;74.60;;;;;;6319671;22;20140;-83
2022/10/29 06:37:20;;;;;;;2.50;2.10;;;18.50;74.70;;;;;;6292918;22;20140;-81
2022/10/29 06:39:47;;;;;;;4.57;2.60;;;18.50;74.60;;;;;;6318077;22;20178;-81
2022/10/29 06:42:17;;;;;;;2.90;2.60;;;18.50;74.60;;;;;;6265625;22;20176;-80
2022/10/29 06:44:44;;;;;;;3.00;2.15;;;18.50;74.60;;;;;;6266566;22;20148;-82
2022/10/29 06:47:13;;;;;;;2.92;2.50;;;18.50;74.60;;;;;;6215002;22;20152;-81
2022/10/29 06:49:40;;;;;;;2.60;2.40;;;18.50;74.50;;;;;;6217491;22;20155;-81
2022/10/29 06:52:11;;;;;;;3.72;2.47;;;18.50;74.50;;;;;;6216476;22;20152;-81
2022/10/29 06:54:41;;;;;;;2.33;2.13;;;18.50;74.30;;;;;;6240721;22;20155;-81
2022/10/29 06:57:07;;;;;;;2.85;2.20;;;18.50;74.50;;;;;;6268126;22;20152;-81
2022/10/29 06:59:38;;;;;;;3.03;2.40;;;18.50;74.50;;;;;;6322214;22;20139;-81
2022/10/29 07:02:04;;;;;;;3.75;2.60;;;18.50;74.60;;;;;;6246620;22;20196;-80
2022/10/29 07:04:34;;;;;;;5.40;2.22;;;18.50;74.50;;;;;;6325544;22;20209;-81
2022/10/29 07:07:00;;;;;;;2.60;2.35;;;18.50;74.60;;;;;;6247174;22;20173;-81
2022/10/29 07:09:26;;;;;;;2.53;2.22;;;18.50;74.60;;;;;;6324692;22;20132;-81
2022/10/29 07:11:52;;;;;;;2.88;2.58;;;18.50;74.70;;;;;;6324933;22;20220;-81
2022/10/29 07:14:18;;;;;;;2.85;2.30;;;18.50;74.60;;;;;;6297544;22;20167;-82
2022/10/29 07:16:48;;;;;;;2.65;2.40;;;18.50;74.50;;;;;;6324599;22;20133;-81
2022/10/29 07:19:14;;;;;;;2.60;2.28;;;18.50;74.40;;;;;;6295861;22;20144;-81
2022/10/29 07:21:46;;;;;;;2.45;2.25;;;18.50;74.50;;;;;;6321516;22;20207;-81
2022/10/29 07:24:12;;;;;;;2.50;2.25;;;18.50;74.60;;;;;;6217177;22;20537;-81
2022/10/29 07:26:38;;;;;;;3.25;2.15;;;18.50;74.40;;;;;;6320316;22;20140;-81
2022/10/29 07:29:04;;;;;;;2.58;2.22;;;18.50;74.00;;;;;;6319758;22;20135;-80
2022/10/29 07:31:34;;;;;;;2.63;2.22;;;18.60;73.80;;;;;;6295222;22;20170;-80
2022/10/29 07:34:06;;;;;;;3.05;2.50;;;18.60;73.80;;;;;;6242544;22;20155;-81
2022/10/29 07:36:32;;;;;;;2.80;2.05;;;18.60;73.50;;;;;;6269596;22;20152;-80
2022/10/29 07:39:06;;;;;;;3.30;2.00;;;18.60;73.90;;;;;;6323798;22;20160;-79
2022/10/29 07:41:32;;;;;;;2.20;1.98;;;18.50;74.90;;;;;;6242939;22;20648;-79
2022/10/29 07:43:58;;;;;;;2.33;2.10;;;18.60;74.00;;;;;;6295030;22;20175;-79
2022/10/29 07:46:24;;;;;;;2.30;2.10;;;18.60;73.80;;;;;;6294884;22;20179;-79
2022/10/29 07:48:52;;;;;;;2.22;2.00;;;18.70;73.70;;;;;;6295712;22;20140;-81
2022/10/29 07:51:18;;;;;;;3.13;1.90;;;18.70;73.30;;;;;;6269455;22;20155;-80
2022/10/29 07:53:44;;;;;;;3.60;1.85;;;18.70;73.30;;;;;;6319747;22;20139;-79
2022/10/29 07:56:12;;;;;;;2.55;2.08;;;18.70;73.30;;;;;;6293386;22;20156;-79
2022/10/29 07:58:38;;;;;;;2.47;2.22;;;18.70;73.40;;;;;;6320327;22;20163;-82
2022/10/29 08:01:03;;;;;;;2.83;2.30;;;18.70;73.30;;;;;;6321678;22;20140;-81
2022/10/29 08:03:33;;;;;;;2.20;2.00;;;18.70;73.30;;;;;;6352835;22;20168;-81
2022/10/29 08:06:04;;;;;;;2.88;2.17;;;18.70;72.90;;;;;;6348210;22;20178;-81
2022/10/29 08:08:30;;;;;;;2.55;2.10;;;18.70;73.00;;;;;;6267891;22;20148;-81
2022/10/29 08:10:59;;;;;;;2.40;2.15;;;18.70;72.90;;;;;;6267415;22;20135;-81
2022/10/29 08:13:25;;;;;;;3.92;2.40;;;18.70;72.70;;;;;;6267610;22;20181;-80
2022/10/29 08:15:50;;;;;;;2.50;2.25;;;18.70;72.70;;;;;;6321257;22;20135;-81
2022/10/29 08:18:16;;;;;;;3.15;2.20;;;18.70;72.60;;;;;;6320507;22;20153;-81
2022/10/29 08:20:46;;;;;;;2.10;1.90;;;18.70;72.90;;;;;;6252496;23;20153;-82
2022/10/29 08:23:13;;;;;;;2.53;2.20;;;18.80;72.60;;;;;;6226250;23;20177;-81
2022/10/29 08:25:41;;;;;;;3.33;2.38;;;18.80;72.60;;;;;;6251451;23;20145;-82
2022/10/29 08:28:09;;;;;;;2.67;2.20;;;18.80;72.50;;;;;;6224781;23;20563;-84
2022/10/29 08:30:35;;;;;;;2.50;2.20;;;18.80;72.30;;;;;;6251825;23;20603;-82
2022/10/29 08:33:02;;;;;;;4.63;2.38;;;18.70;72.30;;;;;;6229251;23;20228;-81
2022/10/29 08:35:27;;;;;;;2.75;2.33;;;18.80;72.70;;;;;;6227517;23;20237;-82
2022/10/29 08:37:59;;;;;;;2.80;1.90;;;18.70;72.20;;;;;;6227954;23;20512;-80
2022/10/29 08:40:29;;;;;;;2.50;2.22;;;18.80;73.20;;;;;;6252648;23;20149;-81
2022/10/29 08:43:21;;;;;;;3.28;1.90;;;18.80;72.70;;;;;;6252563;23;20171;-84
2022/10/29 08:45:47;;;;;;;3.13;2.03;;;18.80;72.30;;;;;;6224986;23;20245;-82
2022/10/29 08:48:37;;;;;;;2.38;1.98;;;18.80;72.00;;;;;;6249709;23;20138;-80
2022/10/29 08:51:12;;;;;;;3.92;1.90;;;18.80;72.20;;;;;;6266896;22;20561;-83
2022/10/29 08:53:49;;;;;;;1.80;1.70;;;18.80;71.90;;;;;;6267605;22;20490;-82
2022/10/29 08:56:38;;;;;;;2.22;1.95;;;18.80;72.00;;;;;;6270951;22;20159;-84
2022/10/29 08:59:23;;;;;;;3.30;2.15;;;18.80;72.00;;;;;;6320714;22;20202;-79
2022/10/29 09:01:49;;;;;;;3.72;2.38;;;18.80;71.70;;;;;;6290739;22;20187;-81
2022/10/29 09:04:23;;;;;;;2.40;1.83;;;18.80;72.40;;;;;;6287528;22;20144;-83
2022/10/29 09:07:00;;;;;;;2.28;2.08;;;18.90;72.50;;;;;;6314421;22;20151;-81
2022/10/29 09:09:45;;;;;;;2.97;2.03;;;18.90;72.70;;;;;;6314457;22;20128;-82
2022/10/29 09:12:38;;;;;;;6.05;2.05;;;18.90;72.30;;;;;;6312422;22;20154;-82
2022/10/29 09:15:42;;;;;;;2.67;1.90;;;19.00;72.50;;;;;;6266702;22;20152;-84
2022/10/29 09:18:22;;;;;;;3.92;2.00;;;19.00;72.40;;;;;;6313011;22;20152;-82
2022/10/29 09:21:12;;;;;;;4.22;2.20;;;19.00;72.30;;;;;;6314087;22;20139;-84
2022/10/29 09:24:02;;;;;;;6.47;2.25;;;19.00;72.30;;;;;;6312910;22;20665;-83
2022/10/29 09:26:32;;;;;;;5.40;1.90;;;19.00;72.60;;;;;;6311905;22;20174;-83
2022/10/29 09:29:25;;;;;;;5.05;1.90;;;19.10;71.60;;;;;;6288411;22;20148;-83
2022/10/29 09:31:59;;;;;;;5.43;2.30;;;19.00;71.20;;;;;;6289105;22;20137;-82
2022/10/29 09:34:30;;;;;;;7.47;2.22;;;19.00;71.00;;;;;;6310041;22;20147;-83
2022/10/29 09:36:56;;;;;;;6.90;2.10;;;19.10;71.60;;;;;;6308636;22;20135;-81
2022/10/29 09:39:33;;;;;;;6.35;2.10;;;19.10;72.00;;;;;;6309893;22;20124;-83
2022/10/29 09:41:59;;;;;;;6.13;2.28;;;19.10;71.40;;;;;;6258038;22;20148;-82
2022/10/29 09:44:37;;;;;;;4.22;2.05;;;19.00;71.20;;;;;;6283015;22;20634;-83
2022/10/29 09:47:24;;;;;;;8.15;2.35;;;19.10;70.90;;;;;;6312181;22;20138;-84
2022/10/29 09:49:59;;;;;;;5.60;2.50;;;19.10;71.80;;;;;;6308830;22;20132;-84
2022/10/29 09:52:27;;;;;;;4.35;2.00;;;19.10;70.90;;;;;;6285395;22;20132;-82
2022/10/29 09:54:53;;;;;;;5.63;2.10;;;19.10;70.80;;;;;;6284908;22;20261;-82
2022/10/29 09:57:24;;;;;;;5.63;2.40;;;19.10;70.70;;;;;;6284121;22;20144;-81
2022/10/29 09:59:53;;;;;;;5.15;2.13;;;19.00;70.70;;;;;;6285589;22;20192;-82
2022/10/29 10:02:36;;;;;;;6.35;2.00;;;19.10;71.30;;;;;;6312217;22;20187;-81
2022/10/29 10:05:12;;;;;;;8.75;2.30;;;19.10;70.40;;;;;;6311497;22;20178;-81
2022/10/29 10:07:39;;;;;;;6.28;1.83;;;19.10;71.40;;;;;;6284547;22;20136;-80
2022/10/29 10:10:20;;;;;;;5.47;2.28;;;19.10;70.60;;;;;;6259360;22;20181;-84
2022/10/29 10:12:47;;;;;;;6.18;2.30;;;19.20;71.30;;;;;;6256976;22;20200;-82
2022/10/29 10:15:23;;;;;;;6.28;2.33;;;19.10;71.20;;;;;;6260766;22;20143;-81
2022/10/29 10:18:05;;;;;;;4.85;2.30;;;19.10;71.10;;;;;;6232099;22;20151;-83
2022/10/29 10:20:35;;;;;;;17.13;2.88;;;19.20;70.50;;;;;;6283513;22;20174;-81
2022/10/29 10:23:14;;;;;;;5.38;2.08;;;19.20;71.40;;;;;;6259249;22;20494;-82
2022/10/29 10:25:40;;;;;;;7.40;2.35;;;19.10;70.40;;;;;;6214651;22;20155;-81
2022/10/29 10:28:26;;;;;;;5.90;2.00;;;19.20;71.00;;;;;;6258088;22;20207;-81
2022/10/29 10:31:07;;;;;;;5.55;2.20;;;19.20;71.00;;;;;;6234432;22;20166;-82
2022/10/29 10:33:53;;;;;;;5.85;2.10;;;19.20;70.30;;;;;;6288120;22;20216;-82
2022/10/29 10:36:23;;;;;;;7.57;2.30;;;19.20;70.70;;;;;;6195271;22;20160;-82
2022/10/29 10:38:55;;;;;;;7.90;1.92;;;19.20;71.30;;;;;;6263800;22;20140;-84
2022/10/29 10:41:27;;;;;;;6.65;2.45;;;19.20;71.10;;;;;;6266492;22;20155;-81
2022/10/29 10:43:59;;;;;;;3.65;1.90;;;19.20;71.40;;;;;;6264612;22;20217;-81
2022/10/29 10:46:27;;;;;;;5.18;2.25;;;19.20;71.00;;;;;;6266435;22;20216;-80
2022/10/29 10:49:03;;;;;;;5.93;2.15;;;19.20;71.20;;;;;;6264898;22;20152;-81
2022/10/29 10:51:32;;;;;;;6.00;2.40;;;19.20;70.40;;;;;;6263619;22;20136;-81
2022/10/29 10:53:59;;;;;;;6.88;1.88;;;19.20;71.20;;;;;;6262559;22;20136;-81
2022/10/29 10:56:24;;;;;;;8.48;2.30;;;19.20;70.10;;;;;;6222835;23;20651;-79
2022/10/29 10:59:04;;;;;;;4.80;2.40;;;19.20;70.00;;;;;;6196997;23;20170;-79
2022/10/29 11:01:36;;;;;;;3.88;2.25;;;19.20;70.20;;;;;;6174146;23;20264;-79
2022/10/29 11:04:12;;;;;;;5.60;2.55;;;19.30;70.40;;;;;;6222600;23;20169;-82
2022/10/29 11:06:40;;;;;;;7.00;2.30;;;19.20;70.40;;;;;;6171639;23;20149;-82
2022/10/29 11:09:19;;;;;;;5.88;2.20;;;19.20;71.00;;;;;;6196462;23;20153;-81
2022/10/29 11:11:51;;;;;;;4.63;1.92;;;19.20;70.30;;;;;;6220166;23;20153;-81
2022/10/29 11:14:31;;;;;;;7.22;2.17;;;19.20;69.90;;;;;;6221765;23;20130;-81
2022/10/29 11:17:05;;;;;;;5.95;1.92;;;19.20;70.50;;;;;;6148954;23;20154;-81
2022/10/29 11:19:34;;;;;;;3.30;1.98;;;19.20;71.10;;;;;;6222589;23;20146;-81
2022/10/29 11:22:16;;;;;;;7.28;2.05;;;19.20;70.60;;;;;;6198458;23;20160;-80
2022/10/29 11:25:17;;;;;;;3.45;2.17;;;19.20;70.30;;;;;;6221597;23;20142;-81
2022/10/29 11:27:59;;;;;;;6.32;2.40;;;19.30;70.70;;;;;;6271934;22;20227;-81
2022/10/29 11:30:30;;;;;;;3.22;2.00;;;19.20;70.90;;;;;;6313196;22;20133;-80
2022/10/29 11:33:17;;;;;;;3.83;2.00;;;19.20;70.00;;;;;;6233638;22;20197;-83
2022/10/29 11:35:49;;;;;;;8.48;2.28;;;19.20;69.50;;;;;;6286650;22;20475;-81
2022/10/29 11:38:18;;;;;;;4.32;2.08;;;19.20;69.20;;;;;;6286324;22;20276;-82
2022/10/29 11:40:57;;;;;;;4.40;1.88;;;19.20;69.20;;;;;;6287814;22;20128;-80
2022/10/29 11:43:22;;;;;;;3.35;1.90;;;19.20;69.20;;;;;;6265823;22;20164;-81
2022/10/29 11:46:11;;;;;;;6.20;2.40;;;19.20;70.30;;;;;;6260071;22;20209;-81
2022/10/29 11:49:08;;;;;;;8.68;2.15;;;19.20;70.20;;;;;;6312195;22;20138;-81
2022/10/29 11:51:44;;;;;;;4.80;1.80;;;19.20;69.80;;;;;;6263249;22;20144;-81
2022/10/29 11:54:27;;;;;;;6.68;2.35;;;19.20;69.60;;;;;;6286908;22;20144;-81
2022/10/29 11:56:58;;;;;;;6.03;2.35;;;19.20;70.40;;;;;;6286708;22;20487;-83
2022/10/29 12:00:01;;;;;;;6.20;2.38;;;19.20;70.50;;;;;;6260046;22;20159;-85
2022/10/29 12:02:58;;;;;;;6.93;2.55;;;19.20;69.60;;;;;;6290487;22;20340;-82
2022/10/29 12:05:40;;;;;;;7.43;1.90;;;19.20;69.90;;;;;;6261648;22;20475;-82
2022/10/29 12:08:20;;;;;;;5.60;1.90;;;19.20;69.60;;;;;;6310447;22;20155;-81
2022/10/29 12:11:02;;;;;;;4.90;1.88;;;19.20;69.80;;;;;;6282789;22;20144;-84
2022/10/29 12:13:52;;;;;;;2.75;1.75;;;19.30;69.90;;;;;;6308538;22;20144;-81
2022/10/29 12:16:38;;;;;;;2.38;1.88;;;19.30;68.80;;;;;;6258062;22;20148;-82
2022/10/29 12:19:36;;;;;;;2.40;1.75;;;19.20;69.60;;;;;;6307434;22;20152;-84
2022/10/29 12:22:29;;;;;;;5.50;1.77;;;19.20;68.40;;;;;;6256146;22;20255;-81
2022/10/29 12:25:17;;;;;;;2.85;1.52;;;19.20;68.00;;;;;;6310092;22;20543;-81
2022/10/29 12:27:59;;;;;;;3.90;1.77;;;19.20;67.60;;;;;;6310006;22;20578;-82
2022/10/29 12:30:30;;;;;;;6.38;2.00;;;19.20;67.30;;;;;;6239357;22;20174;-84
2022/10/29 12:33:19;;;;;;;2.85;1.67;;;19.30;69.00;;;;;;6256176;22;20156;-83
2022/10/29 12:35:56;;;;;;;2.33;1.40;;;19.30;68.50;;;;;;6261928;22;20216;-84
2022/10/29 12:38:38;;;;;;;3.72;1.52;;;19.20;67.70;;;;;;6281690;22;20159;-84
2022/10/29 12:41:19;;;;;;;2.40;1.75;;;19.30;67.70;;;;;;6257890;22;20543;-81
2022/10/29 12:43:50;;;;;;;3.72;1.98;;;19.30;68.60;;;;;;6308619;22;20187;-82
2022/10/29 12:46:28;;;;;;;2.95;1.70;;;19.30;67.80;;;;;;6231147;22;20159;-84
2022/10/29 12:49:20;;;;;;;3.25;1.98;;;19.30;67.80;;;;;;6260553;22;20147;-82
2022/10/29 12:51:54;;;;;;;3.92;1.90;;;19.30;68.50;;;;;;6235040;22;20518;-83
2022/10/29 12:54:29;;;;;;;5.60;1.92;;;19.30;68.10;;;;;;6283219;22;20239;-83
2022/10/29 12:57:18;;;;;;;3.92;1.92;;;19.30;68.90;;;;;;6309784;22;20510;-83
2022/10/29 12:59:50;;;;;;;2.55;1.80;;;19.30;67.90;;;;;;6217136;22;20156;-84
2022/10/29 13:02:46;;;;;;;2.53;1.70;;;19.30;68.00;;;;;;6227156;22;20226;-83
2022/10/29 13:05:33;;;;;;;9.85;2.55;;;19.30;67.40;;;;;;6283509;22;20152;-82
2022/10/29 13:08:31;;;;;;;4.03;1.80;;;19.30;69.30;;;;;;6264923;22;20208;-84
2022/10/29 13:11:16;;;;;;;4.95;1.83;;;19.30;68.30;;;;;;6218165;22;20148;-81
2022/10/29 13:13:53;;;;;;;4.93;1.80;;;19.30;68.10;;;;;;6189245;22;20148;-82
2022/10/29 13:16:24;;;;;;;3.33;1.95;;;19.30;67.50;;;;;;6257769;22;20592;-82